createdAt,value
2019-03-25T00:00:08.559Z,2.87
2019-03-25T00:01:44.370Z,2.85
2019-03-25T00:03:18.069Z,2.85
2019-03-25T00:04:52.385Z,2.84
2019-03-25T00:06:26.128Z,2.82
2019-03-25T00:07:59.784Z,2.78
2019-03-25T00:09:34.154Z,2.77
2019-03-25T00:11:08.515Z,2.73
2019-03-25T00:12:42.728Z,2.71
2019-03-25T00:14:16.423Z,2.71
2019-03-25T00:15:50.104Z,2.73
2019-03-25T00:17:23.886Z,2.75
2019-03-25T00:18:57.584Z,2.70
2019-03-25T00:20:31.315Z,2.64
2019-03-25T00:22:05.039Z,2.58
2019-03-25T00:23:39.331Z,2.56
2019-03-25T00:25:13.096Z,2.56
2019-03-25T00:26:47.395Z,2.53
2019-03-25T00:28:21.016Z,2.50
2019-03-25T00:29:55.372Z,2.47
2019-03-25T00:31:29.014Z,2.46
2019-03-25T00:33:03.338Z,2.45
2019-03-25T00:34:38.133Z,2.44
2019-03-25T00:36:12.409Z,2.44
2019-03-25T00:37:46.054Z,2.46
2019-03-25T00:39:21.062Z,2.43
2019-03-25T00:40:55.364Z,2.38
2019-03-25T00:42:29.668Z,2.38
2019-03-25T00:44:04.492Z,2.35
2019-03-25T00:45:38.758Z,2.34
2019-03-25T00:47:13.048Z,2.24
2019-03-25T00:48:47.704Z,2.22
2019-03-25T00:50:21.946Z,2.21
2019-03-25T00:51:56.191Z,2.19
2019-03-25T00:53:30.482Z,2.18
2019-03-25T00:55:05.839Z,2.18
2019-03-25T00:56:39.537Z,2.15
2019-03-25T00:58:13.838Z,2.10
2019-03-25T00:59:49.064Z,2.07
2019-03-25T01:01:23.057Z,2.02
2019-03-25T01:02:56.772Z,1.94
2019-03-25T01:04:30.480Z,1.87
2019-03-25T01:06:04.803Z,1.83
2019-03-25T01:07:39.165Z,1.75
2019-03-25T01:09:12.859Z,1.68
2019-03-25T01:10:47.568Z,1.64
2019-03-25T01:12:21.255Z,1.61
2019-03-25T01:13:54.972Z,1.56
2019-03-25T01:15:29.327Z,1.54
2019-03-25T01:17:02.994Z,1.53
2019-03-25T01:18:36.696Z,1.54
2019-03-25T01:20:10.735Z,1.52
2019-03-25T01:21:44.985Z,1.52
2019-03-25T01:23:18.726Z,1.52
2019-03-25T01:25:01.459Z,1.51
2019-03-25T01:26:28.360Z,1.50
2019-03-25T01:28:02.081Z,1.51
2019-03-25T01:29:36.351Z,1.52
2019-03-25T01:31:10.662Z,1.56
2019-03-25T01:32:44.327Z,1.60
2019-03-25T01:34:18.069Z,1.61
2019-03-25T01:35:52.780Z,1.59
2019-03-25T01:37:26.510Z,1.56
2019-03-25T01:39:00.206Z,1.54
2019-03-25T01:40:34.599Z,1.52
2019-03-25T01:42:08.206Z,1.49
2019-03-25T01:43:41.999Z,1.46
2019-03-25T01:45:15.741Z,1.44
2019-03-25T01:46:49.428Z,1.40
2019-03-25T01:48:23.658Z,1.40
2019-03-25T01:49:57.365Z,1.41
2019-03-25T01:51:31.022Z,1.39
2019-03-25T01:53:04.740Z,1.37
2019-03-25T01:54:38.510Z,1.36
2019-03-25T01:56:12.837Z,1.38
2019-03-25T01:57:47.087Z,1.32
2019-03-25T01:59:21.307Z,1.27
2019-03-25T02:00:55.083Z,1.23
2019-03-25T02:02:28.716Z,1.19
2019-03-25T02:04:03.019Z,1.14
2019-03-25T02:05:36.743Z,1.14
2019-03-25T02:07:10.415Z,1.15
2019-03-25T02:08:44.722Z,1.19
2019-03-25T02:10:19.049Z,1.22
2019-03-25T02:11:53.116Z,1.22
2019-03-25T02:13:26.754Z,1.19
2019-03-25T02:15:00.433Z,1.16
2019-03-25T02:16:35.742Z,1.12
2019-03-25T02:18:09.777Z,1.10
2019-03-25T02:19:43.502Z,1.11
2019-03-25T02:21:17.178Z,1.10
2019-03-25T02:22:51.033Z,1.09
2019-03-25T02:24:24.628Z,1.10
2019-03-25T02:25:58.358Z,1.05
2019-03-25T02:27:32.708Z,1.02
2019-03-25T02:29:06.443Z,0.97
2019-03-25T02:30:40.118Z,0.95
2019-03-25T02:32:13.824Z,0.92
2019-03-25T02:33:47.573Z,0.89
2019-03-25T02:35:21.218Z,0.87
2019-03-25T02:36:55.850Z,0.87
2019-03-25T02:38:29.484Z,0.90
2019-03-25T02:40:03.690Z,0.92
2019-03-25T02:41:37.333Z,0.91
2019-03-25T02:43:11.264Z,0.92
2019-03-25T02:44:44.946Z,0.92
2019-03-25T02:46:18.624Z,0.93
2019-03-25T02:47:52.318Z,0.93
2019-03-25T02:49:26.055Z,0.94
2019-03-25T02:51:00.313Z,0.95
2019-03-25T02:52:34.016Z,0.95
2019-03-25T02:54:08.336Z,0.96
2019-03-25T02:55:42.668Z,0.95
2019-03-25T02:57:17.376Z,0.94
2019-03-25T02:58:51.707Z,0.93
2019-03-25T03:00:38.293Z,0.88
2019-03-25T03:02:12.614Z,0.85
2019-03-25T03:03:46.898Z,0.82
2019-03-25T03:05:21.218Z,0.77
2019-03-25T03:06:55.501Z,0.73
2019-03-25T03:08:29.811Z,0.73
2019-03-25T03:10:04.852Z,0.71
2019-03-25T03:11:39.274Z,0.69
2019-03-25T03:13:13.605Z,0.70
2019-03-25T03:14:48.325Z,0.71
2019-03-25T03:16:22.673Z,0.71
2019-03-25T03:17:57.030Z,0.70
2019-03-25T03:19:31.299Z,0.72
2019-03-25T03:21:05.030Z,0.74
2019-03-25T03:22:38.793Z,0.72
2019-03-25T03:24:13.038Z,0.71
2019-03-25T03:25:56.935Z,0.68
2019-03-25T03:27:22.618Z,0.69
2019-03-25T03:28:56.927Z,0.68
2019-03-25T03:30:31.221Z,0.64
2019-03-25T03:32:04.939Z,0.60
2019-03-25T03:33:38.590Z,0.51
2019-03-25T03:35:12.335Z,0.45
2019-03-25T03:36:46.538Z,0.40
2019-03-25T03:38:20.761Z,0.36
2019-03-25T03:39:54.462Z,0.34
2019-03-25T03:41:28.829Z,0.33
2019-03-25T03:43:02.561Z,0.32
2019-03-25T03:44:36.304Z,0.30
2019-03-25T03:46:10.444Z,0.29
2019-03-25T03:47:44.266Z,0.30
2019-03-25T03:49:18.004Z,0.31
2019-03-25T03:50:51.863Z,0.34
2019-03-25T03:52:27.160Z,0.32
2019-03-25T03:54:00.882Z,0.27
2019-03-25T03:55:36.251Z,0.27
2019-03-25T03:57:09.965Z,0.25
2019-03-25T03:58:44.095Z,0.25
2019-03-25T04:00:32.344Z,0.27
2019-03-25T04:02:06.062Z,0.27
2019-03-25T04:03:39.781Z,0.29
2019-03-25T04:05:13.483Z,0.30
2019-03-25T04:06:47.207Z,0.35
2019-03-25T04:08:20.886Z,0.37
2019-03-25T04:09:54.585Z,0.39
2019-03-25T04:11:28.359Z,0.39
2019-03-25T04:13:02.060Z,0.37
2019-03-25T04:14:35.704Z,0.32
2019-03-25T04:16:09.414Z,0.24
2019-03-25T04:17:43.054Z,0.17
2019-03-25T04:19:16.829Z,0.13
2019-03-25T04:20:50.611Z,0.08
2019-03-25T04:22:24.249Z,0.04
2019-03-25T04:23:57.915Z,0.04
2019-03-25T04:25:31.666Z,0.04
2019-03-25T04:27:05.954Z,0.03
2019-03-25T04:28:39.607Z,-0.03
2019-03-25T04:30:13.721Z,-0.05
2019-03-25T04:31:48.008Z,-0.02
2019-03-25T04:33:21.719Z,0.03
2019-03-25T04:34:55.437Z,0.08
2019-03-25T04:36:29.681Z,0.14
2019-03-25T04:38:03.981Z,0.19
2019-03-25T04:39:38.597Z,0.23
2019-03-25T04:41:12.879Z,0.26
2019-03-25T04:42:46.622Z,0.31
2019-03-25T04:44:20.350Z,0.30
2019-03-25T04:45:54.594Z,0.32
2019-03-25T04:47:28.893Z,0.33
2019-03-25T04:49:03.153Z,0.37
2019-03-25T04:50:37.460Z,0.42
2019-03-25T04:52:11.116Z,0.48
2019-03-25T04:53:44.819Z,0.56
2019-03-25T04:55:18.537Z,0.62
2019-03-25T04:56:52.813Z,0.72
2019-03-25T04:58:27.109Z,0.81
2019-03-25T05:00:01.448Z,0.88
2019-03-25T05:01:35.178Z,0.96
2019-03-25T05:03:09.411Z,1.04
2019-03-25T05:04:43.184Z,1.13
2019-03-25T05:06:16.823Z,1.25
2019-03-25T05:07:50.548Z,1.77
2019-03-25T05:09:24.793Z,2.53
2019-03-25T05:10:59.067Z,3.13
2019-03-25T05:12:33.386Z,3.65
2019-03-25T05:14:07.639Z,3.88
2019-03-25T05:15:41.949Z,4.34
2019-03-25T05:17:16.266Z,4.81
2019-03-25T05:18:50.596Z,5.11
2019-03-25T05:20:24.814Z,5.50
2019-03-25T05:21:59.115Z,5.97
2019-03-25T05:23:33.347Z,6.20
2019-03-25T05:25:07.725Z,6.64
2019-03-25T05:26:50.694Z,6.97
2019-03-25T05:28:17.926Z,7.28
2019-03-25T05:29:52.240Z,7.39
2019-03-25T05:31:26.573Z,7.58
2019-03-25T05:33:00.850Z,8.04
2019-03-25T05:34:35.089Z,8.60
2019-03-25T05:36:09.388Z,9.07
2019-03-25T05:37:43.671Z,9.40
2019-03-25T05:39:18.011Z,9.46
2019-03-25T05:40:52.593Z,9.68
2019-03-25T05:42:26.826Z,10.10
2019-03-25T05:44:01.063Z,10.42
2019-03-25T05:45:35.370Z,10.77
2019-03-25T05:47:09.713Z,11.10
2019-03-25T05:48:43.925Z,11.44
2019-03-25T05:50:18.171Z,11.37
2019-03-25T05:51:52.419Z,11.55
2019-03-25T05:53:26.737Z,11.91
2019-03-25T05:55:01.041Z,12.10
2019-03-25T05:56:35.199Z,12.00
2019-03-25T05:58:09.458Z,12.22
2019-03-25T05:59:45.087Z,12.34
2019-03-25T06:01:19.484Z,12.36
2019-03-25T06:02:53.809Z,12.53
2019-03-25T06:04:28.054Z,12.53
2019-03-25T06:06:02.424Z,12.58
2019-03-25T06:07:36.737Z,13.00
2019-03-25T06:09:11.118Z,13.35
2019-03-25T06:10:45.437Z,13.42
2019-03-25T06:12:19.670Z,13.75
2019-03-25T06:13:54.004Z,14.10
2019-03-25T06:15:28.285Z,14.29
2019-03-25T06:17:02.551Z,14.14
2019-03-25T06:18:36.811Z,14.36
2019-03-25T06:20:12.203Z,14.68
2019-03-25T06:21:46.488Z,14.80
2019-03-25T06:23:20.898Z,14.80
2019-03-25T06:24:55.137Z,14.97
2019-03-25T06:26:29.369Z,15.21
2019-03-25T06:28:03.637Z,14.91
2019-03-25T06:29:37.946Z,14.82
2019-03-25T06:31:12.215Z,15.02
2019-03-25T06:32:46.445Z,15.31
2019-03-25T06:34:20.689Z,15.16
2019-03-25T06:35:54.980Z,14.92
2019-03-25T06:37:29.369Z,14.65
2019-03-25T06:39:05.115Z,14.96
2019-03-25T06:40:39.409Z,15.50
2019-03-25T06:42:14.202Z,16.06
2019-03-25T06:43:48.521Z,16.45
2019-03-25T06:45:22.866Z,16.34
2019-03-25T06:46:57.249Z,16.89
2019-03-25T06:48:31.485Z,17.21
2019-03-25T06:50:08.073Z,17.45
2019-03-25T06:51:45.048Z,17.50
2019-03-25T06:53:18.326Z,17.33
2019-03-25T06:54:52.618Z,16.90
2019-03-25T06:56:26.877Z,16.83
2019-03-25T06:58:01.248Z,17.19
2019-03-25T06:59:35.543Z,17.59
2019-03-25T07:01:09.859Z,17.92
2019-03-25T07:02:44.177Z,18.19
2019-03-25T07:04:18.430Z,18.46
2019-03-25T07:05:52.760Z,18.74
2019-03-25T07:07:27.050Z,18.97
2019-03-25T07:09:01.331Z,19.19
2019-03-25T07:10:37.088Z,19.39
2019-03-25T07:12:11.315Z,19.47
2019-03-25T07:13:45.603Z,19.24
2019-03-25T07:15:22.833Z,19.18
2019-03-25T07:16:57.069Z,19.48
2019-03-25T07:18:31.323Z,19.88
2019-03-25T07:20:08.255Z,19.84
2019-03-25T07:21:42.565Z,19.96
2019-03-25T07:23:16.869Z,20.16
2019-03-25T07:24:51.098Z,20.50
2019-03-25T07:26:25.349Z,20.82
2019-03-25T07:27:59.701Z,20.96
2019-03-25T07:29:33.945Z,20.79
2019-03-25T07:31:08.269Z,20.64
2019-03-25T07:32:42.692Z,20.34
2019-03-25T07:34:17.042Z,20.15
2019-03-25T07:35:51.277Z,20.06
2019-03-25T07:37:25.520Z,20.11
2019-03-25T07:39:00.290Z,20.42
2019-03-25T07:40:36.109Z,20.26
2019-03-25T07:42:10.357Z,20.37
2019-03-25T07:43:44.846Z,20.54
2019-03-25T07:45:19.172Z,20.95
2019-03-25T07:46:53.499Z,21.26
2019-03-25T07:48:27.760Z,21.54
2019-03-25T07:50:02.064Z,21.81
2019-03-25T07:51:36.499Z,21.86
2019-03-25T07:53:10.786Z,21.94
2019-03-25T07:54:46.999Z,22.08
2019-03-25T07:56:21.307Z,22.32
2019-03-25T07:57:55.519Z,22.54
2019-03-25T07:59:29.848Z,23.02
2019-03-25T08:01:04.123Z,23.53
2019-03-25T08:02:38.355Z,23.79
2019-03-25T08:04:12.569Z,23.81
2019-03-25T08:05:46.797Z,23.96
2019-03-25T08:07:21.023Z,24.04
2019-03-25T08:09:03.305Z,24.38
2019-03-25T08:10:34.014Z,24.51
2019-03-25T08:12:08.281Z,24.75
2019-03-25T08:13:42.497Z,24.87
2019-03-25T08:15:16.725Z,24.86
2019-03-25T08:16:50.954Z,25.20
2019-03-25T08:18:25.170Z,25.30
2019-03-25T08:19:59.430Z,25.40
2019-03-25T08:21:34.219Z,25.51
2019-03-25T08:23:08.451Z,25.72
2019-03-25T08:24:42.741Z,25.94
2019-03-25T08:26:16.962Z,26.24
2019-03-25T08:27:59.557Z,26.52
2019-03-25T08:29:27.187Z,26.28
2019-03-25T08:31:01.425Z,25.97
2019-03-25T08:32:35.721Z,26.06
2019-03-25T08:34:09.945Z,26.55
2019-03-25T08:35:44.418Z,27.07
2019-03-25T08:37:18.781Z,27.45
2019-03-25T08:38:52.994Z,27.56
2019-03-25T08:40:28.904Z,27.39
2019-03-25T08:42:03.132Z,26.85
2019-03-25T08:43:37.413Z,26.80
2019-03-25T08:45:12.257Z,27.01
2019-03-25T08:46:46.496Z,27.03
2019-03-25T08:48:20.718Z,27.29
2019-03-25T08:49:54.999Z,27.66
2019-03-25T08:51:29.326Z,27.81
2019-03-25T08:53:03.615Z,28.05
2019-03-25T08:54:38.054Z,28.34
2019-03-25T08:56:12.461Z,28.51
2019-03-25T08:57:48.288Z,28.75
2019-03-25T08:59:22.842Z,29.00
2019-03-25T09:00:57.119Z,29.19
2019-03-25T09:02:31.332Z,29.39
2019-03-25T09:04:05.691Z,29.61
2019-03-25T09:05:39.896Z,29.72
2019-03-25T09:07:14.126Z,29.90
2019-03-25T09:08:48.358Z,30.03
2019-03-25T09:10:22.604Z,30.03
2019-03-25T09:11:56.890Z,29.82
2019-03-25T09:13:31.114Z,30.06
2019-03-25T09:15:07.984Z,30.36
2019-03-25T09:16:42.251Z,30.67
2019-03-25T09:18:16.492Z,30.80
2019-03-25T09:19:50.790Z,30.46
2019-03-25T09:21:25.004Z,30.40
2019-03-25T09:23:00.799Z,30.33
2019-03-25T09:24:35.090Z,29.93
2019-03-25T09:26:09.319Z,30.32
2019-03-25T09:27:43.556Z,30.69
2019-03-25T09:29:17.814Z,30.79
2019-03-25T09:30:55.097Z,30.70
2019-03-25T09:32:29.677Z,30.56
2019-03-25T09:34:03.997Z,30.76
2019-03-25T09:35:38.243Z,30.92
2019-03-25T09:37:12.994Z,30.88
2019-03-25T09:38:47.440Z,30.95
2019-03-25T09:40:21.778Z,30.91
2019-03-25T09:41:56.002Z,31.52
2019-03-25T09:43:30.265Z,31.81
2019-03-25T09:45:07.053Z,31.87
2019-03-25T09:46:41.653Z,32.09
2019-03-25T09:48:15.944Z,32.13
2019-03-25T09:49:50.244Z,32.30
2019-03-25T09:51:24.458Z,32.45
2019-03-25T09:52:58.725Z,32.51
2019-03-25T09:54:33.056Z,32.48
2019-03-25T09:56:07.331Z,32.15
2019-03-25T09:57:41.617Z,31.67
2019-03-25T09:59:15.856Z,31.46
2019-03-25T10:00:52.063Z,31.51
2019-03-25T10:02:26.035Z,31.55
2019-03-25T10:04:00.255Z,31.59
2019-03-25T10:05:34.590Z,30.83
2019-03-25T10:07:11.853Z,29.79
2019-03-25T10:08:46.327Z,29.17
2019-03-25T10:10:20.615Z,28.75
2019-03-25T10:11:54.825Z,28.21
2019-03-25T10:13:30.303Z,27.91
2019-03-25T10:15:06.838Z,27.29
2019-03-25T10:16:41.139Z,26.82
2019-03-25T10:18:15.385Z,26.41
2019-03-25T10:19:49.616Z,26.50
2019-03-25T10:21:23.919Z,26.62
2019-03-25T10:22:58.200Z,26.61
2019-03-25T10:24:32.539Z,26.56
2019-03-25T10:26:07.372Z,26.55
2019-03-25T10:27:41.668Z,26.48
2019-03-25T10:29:15.950Z,26.39
2019-03-25T10:30:50.231Z,26.05
2019-03-25T10:32:24.526Z,25.95
2019-03-25T10:33:58.775Z,25.96
2019-03-25T10:35:32.995Z,26.01
2019-03-25T10:37:07.230Z,26.08
2019-03-25T10:38:41.498Z,26.12
2019-03-25T10:40:15.707Z,26.13
2019-03-25T10:41:50.015Z,26.14
2019-03-25T10:43:24.311Z,25.97
2019-03-25T10:44:58.531Z,25.87
2019-03-25T10:46:32.784Z,25.68
2019-03-25T10:48:07.124Z,25.76
2019-03-25T10:49:41.445Z,25.83
2019-03-25T10:51:15.670Z,25.74
2019-03-25T10:52:49.936Z,25.70
2019-03-25T10:54:24.504Z,25.59
2019-03-25T10:55:59.978Z,25.36
2019-03-25T10:57:34.190Z,25.27
2019-03-25T10:59:08.489Z,25.23
2019-03-25T11:00:42.773Z,25.38
2019-03-25T11:02:17.015Z,25.45
2019-03-25T11:03:51.223Z,25.50
2019-03-25T11:05:25.517Z,25.53
2019-03-25T11:06:59.727Z,25.63
2019-03-25T11:08:34.059Z,25.73
2019-03-25T11:10:10.062Z,25.83
2019-03-25T11:11:44.362Z,25.81
2019-03-25T11:13:18.583Z,25.65
2019-03-25T11:14:52.924Z,25.42
2019-03-25T11:16:27.218Z,25.36
2019-03-25T11:18:01.503Z,25.43
2019-03-25T11:19:35.780Z,25.52
2019-03-25T11:21:09.988Z,25.49
2019-03-25T11:22:44.230Z,25.33
2019-03-25T11:24:18.517Z,25.20
2019-03-25T11:25:52.789Z,25.11
2019-03-25T11:27:27.094Z,25.07
2019-03-25T11:29:08.450Z,25.11
2019-03-25T11:30:50.198Z,25.19
2019-03-25T11:32:24.424Z,25.25
2019-03-25T11:33:58.721Z,25.24
2019-03-25T11:35:33.012Z,25.12
2019-03-25T11:37:07.344Z,25.04
2019-03-25T11:38:41.666Z,24.98
2019-03-25T11:40:16.164Z,24.97
2019-03-25T11:41:50.644Z,24.82
2019-03-25T11:43:24.962Z,24.81
2019-03-25T11:44:59.290Z,24.90
2019-03-25T11:46:33.581Z,24.95
2019-03-25T11:48:07.901Z,24.91
2019-03-25T11:49:44.487Z,24.83
2019-03-25T11:51:18.362Z,24.81
2019-03-25T11:52:52.673Z,24.83
2019-03-25T11:54:26.884Z,24.90
2019-03-25T11:56:01.093Z,24.84
2019-03-25T11:57:35.395Z,24.73
2019-03-25T11:59:18.292Z,24.66
2019-03-25T12:00:45.489Z,24.63
2019-03-25T12:02:19.710Z,24.58
2019-03-25T12:03:53.967Z,24.62
2019-03-25T12:05:28.246Z,24.64
2019-03-25T12:07:02.544Z,24.67
2019-03-25T12:08:36.851Z,24.67
2019-03-25T12:10:11.391Z,24.73
2019-03-25T12:11:45.611Z,24.78
2019-03-25T12:13:20.319Z,24.82
2019-03-25T12:14:54.609Z,24.84
2019-03-25T12:16:28.933Z,24.80
2019-03-25T12:18:03.258Z,24.70
2019-03-25T12:19:37.515Z,24.63
2019-03-25T12:21:11.809Z,24.58
2019-03-25T12:22:46.144Z,24.58
2019-03-25T12:24:20.439Z,24.58
2019-03-25T12:25:54.721Z,24.60
2019-03-25T12:27:29.108Z,24.66
2019-03-25T12:29:03.888Z,24.79
2019-03-25T12:30:38.804Z,24.82
2019-03-25T12:32:13.113Z,24.79
2019-03-25T12:33:47.335Z,24.75
2019-03-25T12:35:21.696Z,24.65
2019-03-25T12:36:55.989Z,24.79
2019-03-25T12:38:30.289Z,24.85
2019-03-25T12:40:07.845Z,24.88
2019-03-25T12:41:41.840Z,24.90
2019-03-25T12:43:16.135Z,24.90
2019-03-25T12:44:50.872Z,24.85
2019-03-25T12:46:25.163Z,24.81
2019-03-25T12:48:00.592Z,24.84
2019-03-25T12:49:34.804Z,24.89
2019-03-25T12:51:09.227Z,24.92
2019-03-25T12:52:43.555Z,24.94
2019-03-25T12:54:18.834Z,24.99
2019-03-25T12:55:53.129Z,24.99
2019-03-25T12:57:27.446Z,24.99
2019-03-25T12:59:01.743Z,24.97
2019-03-25T13:00:42.065Z,24.98
2019-03-25T13:02:16.422Z,25.07
2019-03-25T13:03:55.274Z,25.11
2019-03-25T13:05:29.573Z,25.15
2019-03-25T13:07:03.900Z,25.16
2019-03-25T13:08:38.125Z,25.15
2019-03-25T13:10:12.452Z,25.16
2019-03-25T13:11:46.768Z,25.08
2019-03-25T13:13:21.045Z,25.05
2019-03-25T13:14:55.280Z,25.06
2019-03-25T13:16:29.575Z,25.02
2019-03-25T13:18:03.960Z,24.92
2019-03-25T13:19:38.297Z,24.95
2019-03-25T13:21:12.526Z,24.93
2019-03-25T13:22:46.863Z,24.92
2019-03-25T13:24:21.081Z,24.86
2019-03-25T13:25:55.314Z,24.81
2019-03-25T13:27:29.610Z,24.83
2019-03-25T13:29:03.860Z,24.85
2019-03-25T13:30:38.152Z,24.85
2019-03-25T13:32:13.152Z,24.79
2019-03-25T13:33:47.500Z,24.67
2019-03-25T13:35:21.777Z,24.60
2019-03-25T13:36:56.074Z,24.60
2019-03-25T13:38:31.572Z,24.63
2019-03-25T13:40:07.293Z,24.68
2019-03-25T13:41:41.607Z,24.72
2019-03-25T13:43:15.841Z,24.69
2019-03-25T13:44:50.140Z,24.66
2019-03-25T13:46:24.431Z,24.63
2019-03-25T13:47:58.744Z,24.64
2019-03-25T13:49:33.020Z,24.66
2019-03-25T13:51:07.379Z,24.71
2019-03-25T13:52:41.723Z,24.69
2019-03-25T13:54:16.004Z,24.66
2019-03-25T13:55:50.305Z,24.69
2019-03-25T13:57:24.506Z,24.72
2019-03-25T13:58:58.791Z,24.75
2019-03-25T14:00:35.512Z,24.70
2019-03-25T14:02:09.806Z,24.64
2019-03-25T14:03:44.007Z,24.66
2019-03-25T14:05:18.287Z,24.66
2019-03-25T14:06:52.642Z,24.73
2019-03-25T14:08:26.895Z,24.73
2019-03-25T14:10:01.142Z,24.68
2019-03-25T14:11:35.463Z,24.74
2019-03-25T14:13:09.723Z,24.85
2019-03-25T14:14:43.956Z,24.86
2019-03-25T14:16:18.241Z,24.84
2019-03-25T14:17:52.820Z,24.79
2019-03-25T14:19:29.217Z,24.77
2019-03-25T14:21:03.025Z,24.79
2019-03-25T14:22:37.383Z,24.83
2019-03-25T14:24:11.644Z,24.80
2019-03-25T14:25:45.877Z,24.75
2019-03-25T14:27:20.172Z,24.75
2019-03-25T14:28:54.378Z,24.71
2019-03-25T14:30:28.643Z,24.73
2019-03-25T14:32:02.888Z,24.73
2019-03-25T14:33:37.156Z,24.67
2019-03-25T14:35:11.667Z,24.67
2019-03-25T14:36:46.050Z,24.64
2019-03-25T14:38:20.346Z,24.60
2019-03-25T14:39:55.245Z,24.55
2019-03-25T14:41:29.564Z,24.49
2019-03-25T14:43:03.854Z,24.45
2019-03-25T14:44:38.157Z,24.45
2019-03-25T14:46:12.489Z,24.46
2019-03-25T14:47:46.765Z,24.48
2019-03-25T14:49:21.163Z,24.43
2019-03-25T14:50:55.451Z,24.39
2019-03-25T14:52:29.741Z,24.37
2019-03-25T14:54:04.299Z,24.29
2019-03-25T14:55:38.537Z,24.27
2019-03-25T14:57:12.768Z,24.28
2019-03-25T14:58:47.063Z,24.25
2019-03-25T15:00:25.502Z,24.23
2019-03-25T15:01:58.068Z,24.21
2019-03-25T15:03:32.355Z,24.16
2019-03-25T15:05:09.211Z,24.15
2019-03-25T15:06:43.818Z,24.06
2019-03-25T15:08:18.030Z,23.97
2019-03-25T15:09:52.249Z,23.92
2019-03-25T15:11:26.541Z,23.81
2019-03-25T15:13:01.289Z,23.71
2019-03-25T15:14:35.576Z,23.62
2019-03-25T15:16:10.416Z,23.35
2019-03-25T15:17:44.700Z,23.57
2019-03-25T15:19:19.294Z,23.53
2019-03-25T15:20:53.586Z,23.45
2019-03-25T15:22:28.827Z,23.39
2019-03-25T15:24:03.133Z,23.38
2019-03-25T15:25:37.679Z,23.37
2019-03-25T15:27:12.026Z,23.36
2019-03-25T15:28:46.385Z,23.38
2019-03-25T15:30:20.813Z,23.36
2019-03-25T15:31:56.685Z,23.32
2019-03-25T15:33:30.999Z,23.30
2019-03-25T15:35:07.369Z,23.27
2019-03-25T15:36:41.658Z,23.23
2019-03-25T15:38:16.483Z,23.18
2019-03-25T15:39:50.742Z,23.13
2019-03-25T15:41:25.016Z,23.08
2019-03-25T15:42:59.333Z,23.04
2019-03-25T15:44:33.797Z,22.99
2019-03-25T15:46:08.039Z,22.90
2019-03-25T15:47:45.790Z,22.85
2019-03-25T15:49:18.273Z,22.80
2019-03-25T15:50:52.735Z,22.74
2019-03-25T15:52:27.000Z,22.69
2019-03-25T15:54:01.316Z,22.64
2019-03-25T15:55:35.613Z,22.56
2019-03-25T15:57:10.271Z,22.51
2019-03-25T15:58:44.605Z,22.48
2019-03-25T16:00:21.339Z,22.41
2019-03-25T16:01:55.675Z,22.34
2019-03-25T16:03:30.093Z,22.29
2019-03-25T16:05:05.349Z,22.23
2019-03-25T16:06:39.670Z,22.17
2019-03-25T16:08:14.004Z,22.11
2019-03-25T16:09:48.400Z,22.05
2019-03-25T16:11:22.750Z,21.98
2019-03-25T16:12:57.106Z,21.91
2019-03-25T16:14:31.354Z,21.85
2019-03-25T16:16:05.918Z,21.77
2019-03-25T16:17:40.251Z,21.66
2019-03-25T16:19:14.476Z,21.58
2019-03-25T16:20:48.831Z,21.50
2019-03-25T16:22:23.560Z,21.42
2019-03-25T16:23:57.865Z,21.33
2019-03-25T16:25:32.204Z,21.29
2019-03-25T16:27:06.451Z,21.19
2019-03-25T16:28:41.338Z,21.00
2019-03-25T16:30:15.643Z,20.98
2019-03-25T16:31:49.872Z,20.84
2019-03-25T16:33:24.203Z,20.76
2019-03-25T16:34:58.863Z,20.68
2019-03-25T16:36:33.164Z,20.56
2019-03-25T16:38:07.395Z,20.49
2019-03-25T16:39:41.737Z,20.39
2019-03-25T16:41:17.806Z,20.31
2019-03-25T16:42:52.124Z,20.21
2019-03-25T16:44:26.454Z,20.14
2019-03-25T16:46:00.783Z,20.03
2019-03-25T16:47:35.286Z,19.96
2019-03-25T16:49:09.604Z,19.85
2019-03-25T16:50:45.380Z,19.80
2019-03-25T16:52:19.726Z,19.79
2019-03-25T16:53:54.039Z,19.78
2019-03-25T16:55:28.393Z,19.69
2019-03-25T16:57:02.714Z,19.57
2019-03-25T16:58:36.974Z,19.48
2019-03-25T17:00:11.966Z,19.47
2019-03-25T17:01:46.338Z,19.45
2019-03-25T17:03:20.661Z,19.41
2019-03-25T17:04:54.889Z,19.34
2019-03-25T17:06:29.385Z,19.26
2019-03-25T17:08:03.672Z,19.17
2019-03-25T17:09:37.963Z,19.08
2019-03-25T17:11:12.280Z,18.96
2019-03-25T17:12:46.924Z,18.82
2019-03-25T17:14:21.210Z,18.68
2019-03-25T17:15:55.509Z,18.55
2019-03-25T17:17:29.863Z,18.43
2019-03-25T17:19:04.290Z,18.33
2019-03-25T17:20:38.704Z,18.24
2019-03-25T17:22:13.411Z,18.14
2019-03-25T17:23:49.119Z,18.05
2019-03-25T17:25:23.763Z,17.97
2019-03-25T17:26:58.017Z,17.89
2019-03-25T17:28:32.393Z,17.83
2019-03-25T17:30:09.517Z,17.75
2019-03-25T17:31:43.983Z,17.66
2019-03-25T17:33:18.308Z,17.55
2019-03-25T17:34:52.639Z,17.43
2019-03-25T17:36:27.046Z,17.30
2019-03-25T17:38:01.456Z,17.17
2019-03-25T17:39:35.763Z,17.03
2019-03-25T17:41:15.413Z,16.91
2019-03-25T17:42:51.242Z,16.78
2019-03-25T17:44:25.645Z,16.67
2019-03-25T17:45:59.940Z,16.58
2019-03-25T17:47:34.224Z,16.53
2019-03-25T17:49:10.083Z,16.49
2019-03-25T17:50:44.561Z,16.44
2019-03-25T17:52:19.024Z,16.38
2019-03-25T17:53:53.270Z,16.31
2019-03-25T17:55:27.640Z,16.23
2019-03-25T17:57:02.001Z,16.16
2019-03-25T17:58:36.310Z,16.03
2019-03-25T18:00:14.431Z,15.90
2019-03-25T18:01:48.744Z,15.79
2019-03-25T18:03:23.422Z,15.69
2019-03-25T18:04:57.822Z,15.59
2019-03-25T18:06:32.159Z,15.48
2019-03-25T18:08:06.785Z,15.32
2019-03-25T18:09:41.462Z,15.14
2019-03-25T18:11:15.793Z,14.98
2019-03-25T18:12:51.380Z,14.88
2019-03-25T18:14:25.611Z,14.77
2019-03-25T18:16:02.926Z,14.65
2019-03-25T18:17:37.303Z,14.57
2019-03-25T18:19:13.166Z,14.52
2019-03-25T18:20:50.252Z,14.47
2019-03-25T18:22:24.736Z,14.43
2019-03-25T18:24:00.521Z,14.38
2019-03-25T18:25:34.839Z,14.34
2019-03-25T18:27:09.170Z,14.32
2019-03-25T18:28:43.598Z,14.29
2019-03-25T18:30:20.822Z,14.26
2019-03-25T18:31:55.146Z,14.21
2019-03-25T18:33:29.388Z,14.20
2019-03-25T18:35:04.919Z,14.17
2019-03-25T18:36:39.298Z,14.19
2019-03-25T18:38:14.002Z,14.21
2019-03-25T18:39:48.326Z,14.18
2019-03-25T18:41:22.679Z,14.12
2019-03-25T18:42:56.986Z,14.02
2019-03-25T18:44:31.217Z,13.94
2019-03-25T18:46:05.570Z,13.89
2019-03-25T18:47:40.017Z,13.82
2019-03-25T18:49:14.364Z,13.77
2019-03-25T18:50:48.681Z,13.72
2019-03-25T18:52:23.076Z,13.65
2019-03-25T18:53:57.492Z,13.59
2019-03-25T18:55:33.374Z,13.53
2019-03-25T18:57:07.688Z,13.47
2019-03-25T18:58:42.066Z,13.40
2019-03-25T19:00:22.233Z,13.34
2019-03-25T19:01:56.626Z,13.28
2019-03-25T19:03:30.930Z,13.21
2019-03-25T19:05:08.094Z,13.14
2019-03-25T19:06:45.444Z,13.08
2019-03-25T19:08:20.960Z,13.01
2019-03-25T19:09:55.353Z,12.94
2019-03-25T19:11:31.335Z,12.89
2019-03-25T19:13:05.968Z,12.84
2019-03-25T19:14:40.148Z,12.80
2019-03-25T19:16:14.425Z,12.77
2019-03-25T19:17:48.704Z,12.73
2019-03-25T19:19:23.184Z,12.68
2019-03-25T19:20:57.530Z,12.64
2019-03-25T19:22:31.795Z,12.58
2019-03-25T19:24:06.178Z,12.53
2019-03-25T19:25:40.671Z,12.49
2019-03-25T19:27:17.420Z,12.44
2019-03-25T19:28:50.912Z,12.35
2019-03-25T19:30:25.307Z,12.26
2019-03-25T19:32:06.581Z,12.21
2019-03-25T19:33:37.514Z,12.13
2019-03-25T19:35:11.920Z,12.05
2019-03-25T19:36:46.206Z,11.98
2019-03-25T19:38:20.575Z,11.94
2019-03-25T19:39:54.850Z,11.89
2019-03-25T19:41:32.565Z,11.84
2019-03-25T19:43:05.155Z,11.79
2019-03-25T19:44:39.567Z,11.73
2019-03-25T19:46:13.917Z,11.69
2019-03-25T19:47:48.244Z,11.66
2019-03-25T19:49:22.509Z,11.62
2019-03-25T19:50:56.908Z,11.59
2019-03-25T19:52:31.210Z,11.57
2019-03-25T19:54:05.512Z,11.56
2019-03-25T19:55:39.854Z,11.52
2019-03-25T19:57:14.364Z,11.52
2019-03-25T19:58:48.569Z,11.49
2019-03-25T20:00:36.743Z,11.45
2019-03-25T20:02:18.850Z,11.41
2019-03-25T20:03:49.823Z,11.37
2019-03-25T20:05:24.007Z,11.33
2019-03-25T20:06:58.246Z,11.31
2019-03-25T20:08:32.664Z,11.29
2019-03-25T20:10:07.991Z,11.24
2019-03-25T20:11:44.378Z,11.17
2019-03-25T20:13:18.671Z,11.13
2019-03-25T20:14:52.928Z,11.10
2019-03-25T20:16:27.535Z,11.03
2019-03-25T20:18:01.872Z,10.94
2019-03-25T20:19:36.223Z,10.84
2019-03-25T20:21:10.624Z,10.77
2019-03-25T20:22:45.090Z,10.70
2019-03-25T20:24:19.330Z,10.61
2019-03-25T20:25:53.631Z,10.50
2019-03-25T20:27:27.910Z,10.42